Altonah, Utah
Current Conditions -  °F | °C
As of 12:53 PM on Friday 28 Nov 2014 (Local Time) from KVEL Reporting Station
Clear Clear  
Wind Chill:   Ceiling: Unl
Heat Index:   Visibility: 10mi
Dew Point: -5°   Wind: 3mph
Humidity: 39%   Direction: 110°ESE
Pressure: 30.04"   Gusts: NA
Location:  40.4°N, 110.29°W
Report Text: KVEL 281953Z AUTO 11003KT 10SM CLR 08/M05 A3004 RMK AO2 SLP173 T00831050
Loading
Personal Weather Stations






























Interactive Weather Map New forecast layout! Learn more

10-Day Weather Forecast

Advertisements
Track Severe Weather on mobile